Time;durP1;ratioP1;P1;durP2;ratioP2;P2;SDS_P1;SDS_P2;PMS_P1;PMS_P2;Temp;Humidity;BMP_temperature;BMP_pressure;BME280_temperature;BME280_humidity;BME280_pressure;Samples;Min_cycle;Max_cycle;Signal;HPM_P1;HPM_P2
2023/03/03 00:01:31;;;;;;;32.03;13.07;;;0.00;99.90;;;-1.75;100.00;101519.09;4984426;28;20043;-84
2023/03/03 00:03:58;;;;;;;30.88;12.85;;;0.00;99.90;;;-1.70;100.00;101535.66;4985088;28;20034;-84
2023/03/03 00:06:25;;;;;;;29.00;11.55;;;0.00;99.90;;;-1.71;100.00;101533.94;4980535;28;20478;-85
2023/03/03 00:08:52;;;;;;;27.70;11.65;;;0.00;99.90;;;-1.78;100.00;101527.34;4997203;28;20038;-85
2023/03/03 00:11:18;;;;;;;32.35;12.88;;;0.00;99.90;;;-1.70;100.00;101540.16;4984821;28;20030;-84
2023/03/03 00:13:48;;;;;;;38.13;12.13;;;0.00;99.90;;;-1.81;100.00;101523.06;4986099;28;20045;-84
2023/03/03 00:16:28;;;;;;;27.08;11.35;;;0.00;99.90;;;-1.73;100.00;101533.22;4992950;28;20045;-83
2023/03/03 00:18:55;;;;;;;46.95;14.05;;;0.00;99.90;;;-1.75;100.00;101519.94;4999774;28;20042;-83
2023/03/03 00:21:40;;;;;;;44.85;13.98;;;0.00;99.90;;;-1.77;100.00;101527.22;4983619;28;20062;-84
2023/03/03 00:24:22;;;;;;;36.47;12.18;;;0.00;99.90;;;-1.86;100.00;101530.59;4990812;28;20046;-84
2023/03/03 00:27:15;;;;;;;32.53;12.00;;;-0.10;99.90;;;-1.81;100.00;101546.31;4987223;28;20437;-85
2023/03/03 00:29:49;;;;;;;30.10;11.60;;;-0.10;99.90;;;-1.77;100.00;101567.34;4991778;28;20033;-84
2023/03/03 00:32:24;;;;;;;38.38;13.18;;;-0.10;99.90;;;-1.81;100.00;101560.53;4979904;28;20039;-84
2023/03/03 00:34:54;;;;;;;31.92;12.70;;;-0.10;99.90;;;-1.81;100.00;101559.69;4984896;28;20039;-83
2023/03/03 00:37:33;;;;;;;31.80;12.93;;;-0.10;99.90;;;-1.82;100.00;101558.81;4986138;28;20084;-84
2023/03/03 00:40:27;;;;;;;33.30;12.57;;;-0.10;99.90;;;-1.84;100.00;101557.25;4975556;28;20042;-83
2023/03/03 00:42:58;;;;;;;31.20;11.70;;;-0.10;99.90;;;-1.88;100.00;101560.13;4987695;28;20474;-83
2023/03/03 00:45:41;;;;;;;37.97;13.35;;;-0.10;99.90;;;-2.00;100.00;101550.34;4999803;28;20118;-83
2023/03/03 00:48:30;;;;;;;37.08;12.18;;;-0.20;99.90;;;-2.00;100.00;101566.38;4970440;28;20061;-82
2023/03/03 00:50:58;;;;;;;33.17;12.05;;;-0.20;99.90;;;-2.10;100.00;101560.84;4976577;28;20093;-83
2023/03/03 00:53:28;;;;;;;29.45;10.57;;;-0.30;99.90;;;-2.12;100.00;101570.78;4983921;28;20037;-83
2023/03/03 00:55:54;;;;;;;28.10;11.00;;;-0.30;99.90;;;-2.20;100.00;101549.94;4972998;28;20475;-84
2023/03/03 00:58:23;;;;;;;32.50;11.65;;;-0.40;99.90;;;-2.29;100.00;101547.94;4987374;28;20104;-84
2023/03/03 01:00:52;;;;;;;29.60;10.93;;;-0.40;99.90;;;-2.34;100.00;101555.47;4980627;28;20039;-84
2023/03/03 01:03:24;;;;;;;30.63;10.75;;;-0.50;99.90;;;-2.42;100.00;101545.31;4990013;28;20030;-84
2023/03/03 01:05:52;;;;;;;28.25;10.73;;;-0.50;99.90;;;-2.33;100.00;101554.50;4971544;28;20025;-83
2023/03/03 01:08:19;;;;;;;29.48;10.60;;;-0.50;99.90;;;-2.34;100.00;101544.75;4986332;28;20393;-83
2023/03/03 01:10:53;;;;;;;28.27;10.93;;;-0.50;99.90;;;-2.42;100.00;101529.28;4976262;28;20093;-83
2023/03/03 01:13:25;;;;;;;29.10;12.10;;;-0.50;99.90;;;-2.41;100.00;101544.34;4991377;28;20057;-84
2023/03/03 01:15:51;;;;;;;29.15;11.85;;;-0.60;99.90;;;-2.37;100.00;101545.81;5002540;28;20114;-84
2023/03/03 01:18:17;;;;;;;33.13;12.60;;;-0.60;99.90;;;-2.28;100.00;101563.03;4987977;28;20035;-83
2023/03/03 01:20:42;;;;;;;30.08;11.55;;;-0.50;99.90;;;-2.23;100.00;101560.88;4988334;28;20097;-83
2023/03/03 01:23:08;;;;;;;31.23;11.38;;;-0.50;99.90;;;-2.23;100.00;101563.53;5001442;28;20449;-83
2023/03/03 01:25:35;;;;;;;26.48;10.30;;;-0.50;99.90;;;-2.23;100.00;101552.00;4991724;28;20038;-84
2023/03/03 01:28:01;;;;;;;28.60;10.65;;;-0.50;99.90;;;-2.19;100.00;101551.66;4993933;28;20042;-84
2023/03/03 01:30:26;;;;;;;29.88;11.98;;;-0.40;99.90;;;-2.19;100.00;101540.13;4984060;28;20042;-83
2023/03/03 01:32:52;;;;;;;35.40;11.52;;;-0.40;99.90;;;-2.13;100.00;101542.34;4991379;28;20140;-84
2023/03/03 01:35:19;;;;;;;28.45;11.20;;;-0.40;99.90;;;-2.10;100.00;101538.59;5005451;28;20449;-83
2023/03/03 01:37:45;;;;;;;29.25;11.20;;;-0.30;99.90;;;-2.14;100.00;101542.44;4989170;28;20108;-83
2023/03/03 01:40:21;;;;;;;31.02;10.98;;;-0.30;99.90;;;-2.19;100.00;101546.31;5003758;28;20031;-82
2023/03/03 01:42:47;;;;;;;31.88;11.00;;;-0.40;99.90;;;-2.32;100.00;101534.81;4986920;28;20038;-82
2023/03/03 01:45:23;;;;;;;26.98;10.57;;;-0.40;99.90;;;-2.33;100.00;101539.28;5008917;28;20027;-84
2023/03/03 01:48:02;;;;;;;23.83;10.18;;;-0.50;99.90;;;-2.31;100.00;101560.56;4992266;28;20045;-83
2023/03/03 01:50:50;;;;;;;24.23;9.50;;;-0.50;99.90;;;-2.39;100.00;101568.28;5000354;28;20502;-84
2023/03/03 01:53:46;;;;;;;27.20;10.52;;;-0.60;99.90;;;-2.44;100.00;101557.06;4992567;28;20038;-83
2023/03/03 01:56:15;;;;;;;24.58;9.25;;;-0.60;99.90;;;-2.46;100.00;101551.84;4983803;28;20042;-83
2023/03/03 01:58:46;;;;;;;33.35;10.80;;;-0.60;99.90;;;-2.41;100.00;101552.34;4984612;28;20030;-83
2023/03/03 02:01:19;;;;;;;40.03;11.68;;;-0.60;99.90;;;-2.37;100.00;101559.19;4970740;28;20034;-83
2023/03/03 02:03:45;;;;;;;29.30;11.20;;;-0.60;99.90;;;-2.33;100.00;101566.03;4998086;28;20038;-83
2023/03/03 02:06:18;;;;;;;36.58;11.82;;;-0.50;99.90;;;-2.27;100.00;101548.69;4987213;28;20030;-83
2023/03/03 02:09:15;;;;;;;33.35;11.93;;;-0.50;99.90;;;-2.23;100.00;101533.28;4987885;28;20461;-84
2023/03/03 02:11:47;;;;;;;33.05;12.30;;;-0.50;99.90;;;-2.19;100.00;101535.63;4990084;28;20102;-84
2023/03/03 02:14:13;;;;;;;35.40;12.70;;;-0.40;99.90;;;-2.13;100.00;101528.09;4985042;28;20137;-84
2023/03/03 02:16:42;;;;;;;31.55;12.05;;;-0.40;99.90;;;-2.18;100.00;101521.28;4981808;28;20049;-84
2023/03/03 02:19:44;;;;;;;33.50;12.57;;;-0.40;99.90;;;-2.14;100.00;101521.91;4993424;28;20026;-85
2023/03/03 02:22:13;;;;;;;34.70;11.98;;;-0.30;99.90;;;-2.09;100.00;101521.59;4992883;28;20034;-84
2023/03/03 02:24:54;;;;;;;34.72;12.77;;;-0.30;99.90;;;-2.06;100.00;101522.19;4983772;28;20080;-84
2023/03/03 02:27:20;;;;;;;39.30;12.85;;;-0.30;99.90;;;-2.07;100.00;101511.63;4985951;28;20493;-83
2023/03/03 02:29:46;;;;;;;41.40;13.75;;;-0.30;99.90;;;-2.02;100.00;101512.16;4985804;28;20031;-84
2023/03/03 02:32:11;;;;;;;36.60;12.63;;;-0.30;99.90;;;-1.94;100.00;101515.09;5004141;28;20117;-84
2023/03/03 02:34:51;;;;;;;37.17;12.80;;;-0.20;99.90;;;-1.91;100.00;101512.19;4990141;28;20073;-84
2023/03/03 02:37:19;;;;;;;39.13;13.60;;;-0.20;99.90;;;-1.90;100.00;101519.25;4979005;28;20505;-84
2023/03/03 02:39:44;;;;;;;37.83;12.77;;;-0.10;99.90;;;-1.93;100.00;101514.13;4986793;28;20042;-85
2023/03/03 02:42:28;;;;;;;36.50;12.98;;;-0.10;99.90;;;-1.95;100.00;101513.41;4978902;28;20046;-83
2023/03/03 02:44:55;;;;;;;38.17;13.85;;;-0.20;99.90;;;-2.10;100.00;101485.97;4982004;28;20026;-84
2023/03/03 02:47:22;;;;;;;37.93;13.03;;;-0.20;99.90;;;-1.93;100.00;101507.94;5004507;28;20436;-84
2023/03/03 02:49:48;;;;;;;42.72;13.82;;;-0.20;99.90;;;-1.96;100.00;101506.34;4990389;28;20104;-84
2023/03/03 02:52:16;;;;;;;41.97;13.82;;;-0.20;99.90;;;-1.90;100.00;101511.22;4989538;28;20101;-84
2023/03/03 02:54:44;;;;;;;43.28;13.68;;;-0.10;99.90;;;-1.91;100.00;101501.50;4996718;28;20039;-84
2023/03/03 02:57:10;;;;;;;38.67;14.18;;;-0.10;99.90;;;-1.88;100.00;101506.59;5006431;28;20041;-82
2023/03/03 02:59:36;;;;;;;40.53;12.93;;;-0.10;99.90;;;-1.88;100.00;101506.59;4993343;28;20065;-84
2023/03/03 03:02:08;;;;;;;37.63;12.73;;;-0.10;99.90;;;-1.84;100.00;101498.38;4994447;28;20041;-85
2023/03/03 03:04:34;;;;;;;44.08;14.05;;;-0.10;99.90;;;-1.84;100.00;101501.91;4984237;28;20034;-84
2023/03/03 03:07:00;;;;;;;39.63;13.90;;;-0.10;99.90;;;-1.86;100.00;101502.97;4992542;28;20056;-84
2023/03/03 03:09:28;;;;;;;38.70;13.40;;;-0.10;99.90;;;-1.78;100.00;101504.09;4998660;28;20130;-85
2023/03/03 03:11:54;;;;;;;42.65;13.13;;;-0.10;99.90;;;-1.80;100.00;101503.38;5001025;28;20398;-85
2023/03/03 03:14:23;;;;;;;38.95;13.30;;;-0.10;99.90;;;-1.67;100.00;101507.81;4976137;28;20039;-84
2023/03/03 03:16:51;;;;;;;39.55;13.15;;;0.10;99.90;;;-1.69;100.00;101505.25;5001099;28;20121;-83
2023/03/03 03:19:16;;;;;;;40.05;14.68;;;0.10;99.90;;;-1.76;100.00;101517.38;4987030;28;20034;-84
2023/03/03 03:21:43;;;;;;;40.33;13.52;;;0.00;99.90;;;-1.86;100.00;101506.50;4990455;28;20035;-84
2023/03/03 03:24:10;;;;;;;40.05;13.35;;;0.00;99.90;;;-1.79;100.00;101520.28;4989281;28;20030;-84
2023/03/03 03:26:38;;;;;;;41.05;13.90;;;0.00;99.90;;;-1.76;100.00;101520.06;4976317;28;20034;-84
2023/03/03 03:29:05;;;;;;;41.08;13.77;;;0.00;99.90;;;-1.63;100.00;101517.31;4975552;28;20046;-84
2023/03/03 03:31:30;;;;;;;41.08;13.48;;;0.10;99.90;;;-1.63;100.00;101528.84;4982681;28;20042;-84
2023/03/03 03:33:56;;;;;;;37.65;12.32;;;0.10;99.90;;;-1.71;100.00;101520.56;4982942;28;20042;-83
2023/03/03 03:36:23;;;;;;;43.03;13.52;;;0.10;99.90;;;-1.62;100.00;101519.88;4999727;28;20505;-83
2023/03/03 03:38:48;;;;;;;35.42;12.30;;;0.10;99.90;;;-1.61;100.00;101528.75;4982292;28;20034;-85
2023/03/03 03:41:14;;;;;;;39.67;12.57;;;0.10;99.90;;;-1.68;100.00;101512.31;4983634;28;20038;-84
2023/03/03 03:43:40;;;;;;;36.35;12.23;;;0.10;99.90;;;-1.64;100.00;101523.63;4979527;28;20049;-84
2023/03/03 03:46:07;;;;;;;35.65;12.45;;;0.10;99.90;;;-1.57;100.00;101524.88;4974029;28;20114;-84
2023/03/03 03:48:34;;;;;;;32.55;12.63;;;0.20;99.90;;;-1.62;100.00;101511.00;4969770;28;20046;-84
2023/03/03 03:51:02;;;;;;;37.22;12.55;;;0.20;99.90;;;-1.64;100.00;101515.63;4978171;28;20036;-83
2023/03/03 03:53:28;;;;;;;38.30;12.80;;;0.20;99.90;;;-1.60;100.00;101515.25;4985569;28;20031;-84
2023/03/03 03:55:55;;;;;;;41.38;13.80;;;0.20;99.90;;;-1.54;100.00;101535.34;5001554;28;20038;-84
2023/03/03 03:58:21;;;;;;;40.42;13.93;;;0.20;99.90;;;-1.55;100.00;101539.00;5004242;28;20113;-83
2023/03/03 04:00:53;;;;;;;42.88;13.35;;;0.20;99.90;;;-1.62;100.00;101535.09;4970027;28;20510;-84
2023/03/03 04:03:18;;;;;;;41.05;14.30;;;0.20;99.90;;;-1.65;100.00;101527.28;5005613;28;20035;-84
2023/03/03 04:05:46;;;;;;;35.85;12.70;;;0.20;99.90;;;-1.58;100.00;101538.41;4989812;28;20381;-83
2023/03/03 04:08:12;;;;;;;41.88;13.68;;;0.20;99.90;;;-1.62;100.00;101541.28;4984544;28;20145;-84
2023/03/03 04:10:39;;;;;;;33.80;12.93;;;0.20;99.90;;;-1.52;100.00;101551.31;4986403;28;20037;-83
2023/03/03 04:13:05;;;;;;;34.78;12.63;;;0.20;99.90;;;-1.67;100.00;101531.91;4976891;28;20132;-84
2023/03/03 04:15:32;;;;;;;35.75;13.18;;;0.20;99.90;;;-1.54;100.00;101550.56;4985642;28;20050;-84
2023/03/03 04:17:59;;;;;;;37.33;12.47;;;0.20;99.90;;;-1.49;100.00;101557.25;4979278;28;20689;-86
2023/03/03 04:20:26;;;;;;;35.42;12.52;;;0.30;99.90;;;-1.52;100.00;101548.63;4965362;28;20502;-84
2023/03/03 04:22:55;;;;;;;40.30;14.65;;;0.30;99.90;;;-1.52;100.00;101553.97;4984501;28;20093;-84
2023/03/03 04:25:22;;;;;;;;;;;0.30;99.90;;;-1.51;100.00;101553.84;4999783;28;20137;-83
2023/03/03 04:27:51;;;;;;;41.00;13.52;;;0.20;99.90;;;-1.54;100.00;101539.88;5004750;28;19968;-85
2023/03/03 04:30:18;;;;;;;41.28;13.55;;;0.30;99.90;;;-1.46;100.00;101554.38;4988546;28;20030;-84
2023/03/03 04:32:46;;;;;;;38.03;13.32;;;0.30;99.90;;;-1.46;100.00;101554.38;4989871;28;20081;-84
2023/03/03 04:35:13;;;;;;;38.35;13.82;;;0.30;99.90;;;-1.50;100.00;101547.53;4976636;28;20034;-83
2023/03/03 04:37:41;;;;;;;37.30;13.65;;;0.30;99.90;;;-1.38;100.00;101552.94;4983534;28;20038;-84
2023/03/03 04:40:09;;;;;;;33.75;12.45;;;0.30;99.90;;;-1.40;100.00;101563.75;4988068;28;20414;-85
2023/03/03 04:42:36;;;;;;;38.92;12.50;;;0.40;99.90;;;-1.48;100.00;101548.25;4986362;28;20070;-84
2023/03/03 04:45:03;;;;;;;36.22;12.77;;;0.40;99.90;;;-1.48;100.00;101550.94;4977688;28;20088;-84
2023/03/03 04:47:31;;;;;;;41.92;12.93;;;0.30;99.90;;;-1.45;100.00;101552.53;4987277;28;20193;-84
2023/03/03 04:49:57;;;;;;;46.10;14.48;;;0.40;99.90;;;-1.43;100.00;101552.44;4991244;28;20080;-85
2023/03/03 04:52:23;;;;;;;45.00;14.13;;;0.30;99.90;;;-1.50;100.00;101555.56;4993374;28;20034;-85
2023/03/03 04:54:49;;;;;;;36.28;13.15;;;0.30;99.90;;;-1.40;100.00;101562.91;5002840;28;20685;-84
2023/03/03 04:57:15;;;;;;;41.15;14.25;;;0.40;99.90;;;-1.51;100.00;101551.19;4986307;28;20092;-82
2023/03/03 04:59:41;;;;;;;36.97;13.05;;;0.40;99.90;;;-1.45;100.00;101560.56;4999991;28;20434;-83
2023/03/03 05:02:06;;;;;;;41.15;14.70;;;0.40;99.90;;;-1.36;100.00;101569.75;4988380;28;20041;-84
2023/03/03 05:04:32;;;;;;;38.65;13.45;;;0.40;99.90;;;-1.34;100.00;101574.00;4988133;28;20546;-83
2023/03/03 05:06:58;;;;;;;43.03;15.00;;;0.40;99.90;;;-1.33;100.00;101575.72;4994451;28;20394;-83
2023/03/03 05:09:24;;;;;;;39.90;14.70;;;0.40;99.90;;;-1.38;100.00;101561.81;4981599;28;20054;-83
2023/03/03 05:11:50;;;;;;;42.10;14.60;;;0.40;99.90;;;-1.38;100.00;101560.97;4987294;28;20042;-84
2023/03/03 05:14:16;;;;;;;40.35;13.73;;;0.40;99.90;;;-1.34;100.00;101559.75;4987597;28;20031;-83
2023/03/03 05:16:42;;;;;;;41.22;14.38;;;0.40;99.90;;;-1.43;100.00;101542.56;4999246;28;20034;-84
2023/03/03 05:19:07;;;;;;;44.28;14.77;;;0.40;99.90;;;-1.38;100.00;101551.09;5006314;28;20505;-84
2023/03/03 05:21:33;;;;;;;40.08;14.10;;;0.40;99.90;;;-1.46;100.00;101535.66;4996479;28;20095;-85
2023/03/03 05:23:59;;;;;;;40.90;14.18;;;0.40;99.90;;;-1.36;100.00;101542.97;4990158;28;20034;-84
2023/03/03 05:26:25;;;;;;;42.47;14.48;;;0.40;99.90;;;-1.31;100.00;101547.00;4998161;28;20137;-84
2023/03/03 05:28:51;;;;;;;41.15;14.02;;;0.40;99.90;;;-1.33;100.00;101535.56;4992767;28;20882;-85
2023/03/03 05:31:16;;;;;;;43.20;14.60;;;0.40;99.90;;;-1.17;100.00;101539.72;4982913;28;20043;-85
2023/03/03 05:33:42;;;;;;;47.05;14.90;;;0.50;99.90;;;-1.26;100.00;101521.69;4983708;28;20042;-85
2023/03/03 05:36:08;;;;;;;41.45;15.10;;;0.50;99.90;;;-1.09;100.00;101539.97;4992500;28;20030;-84
2023/03/03 05:38:33;;;;;;;43.40;15.63;;;0.60;99.90;;;-1.15;100.00;101540.47;4982561;28;20043;-85
2023/03/03 05:40:59;;;;;;;39.05;13.48;;;0.60;99.90;;;-1.19;100.00;101528.28;4987390;28;20042;-83
2023/03/03 05:43:25;;;;;;;36.95;14.27;;;0.60;99.90;;;-1.12;100.00;101540.22;4992192;28;20042;-82
2023/03/03 05:45:57;;;;;;;36.08;13.85;;;0.60;99.90;;;-1.17;100.00;101539.72;4987997;28;20042;-83
2023/03/03 05:48:23;;;;;;;36.47;13.70;;;0.60;99.90;;;-1.25;100.00;101539.47;4997930;28;20080;-84
2023/03/03 05:50:51;;;;;;;37.00;14.48;;;0.50;99.90;;;-1.21;100.00;101544.47;4991006;28;20117;-81
2023/03/03 05:53:16;;;;;;;36.78;13.02;;;0.60;99.90;;;-1.25;100.00;101542.16;4994467;28;20038;-85
2023/03/03 05:55:42;;;;;;;41.53;13.82;;;0.60;99.90;;;-1.23;100.00;101550.91;4984753;28;20053;-85
2023/03/03 05:58:08;;;;;;;33.85;12.48;;;0.60;99.90;;;-1.23;100.00;101554.44;4985464;28;20093;-85
2023/03/03 06:00:34;;;;;;;34.83;13.63;;;0.50;99.90;;;-1.31;100.00;101547.00;4989671;28;20034;-86
2023/03/03 06:03:00;;;;;;;41.42;14.20;;;0.50;99.90;;;-1.20;100.00;101548.84;4985548;28;20207;-86
2023/03/03 06:05:26;;;;;;;37.25;12.95;;;0.50;99.90;;;-1.24;100.00;101550.06;4989799;28;20049;-87
2023/03/03 06:07:52;;;;;;;45.67;16.20;;;0.50;99.90;;;-1.09;100.00;101561.41;4979319;28;20121;-80
2023/03/03 06:10:17;;;;;;;44.40;16.17;;;0.60;99.90;;;-1.00;100.00;101575.09;4991634;28;20108;-79
2023/03/03 06:12:47;;;;;;;44.65;15.40;;;0.70;99.90;;;-1.16;100.00;101570.91;4978599;28;20049;-79
2023/03/03 06:15:13;;;;;;;42.10;14.95;;;0.60;99.90;;;-1.07;100.00;101583.56;4991790;28;20490;-78
2023/03/03 06:17:39;;;;;;;35.97;13.52;;;0.70;99.90;;;-1.19;100.00;101585.41;4993608;28;20047;-79
2023/03/03 06:20:05;;;;;;;43.85;15.20;;;0.60;99.90;;;-1.08;100.00;101605.97;4984716;28;20133;-88
2023/03/03 06:22:31;;;;;;;40.08;14.35;;;0.70;99.90;;;-1.12;100.00;101592.94;4994295;28;20205;-86
2023/03/03 06:24:57;;;;;;;42.22;14.85;;;0.70;99.90;;;-1.07;100.00;101602.31;4983272;28;20500;-87
2023/03/03 06:27:23;;;;;;;40.95;15.38;;;0.70;99.90;;;-1.09;100.00;101598.91;4990757;28;20038;-86
2023/03/03 06:29:49;;;;;;;45.95;15.98;;;0.70;99.90;;;-1.06;100.00;101614.78;4994226;28;20045;-86
2023/03/03 06:32:14;;;;;;;41.63;15.77;;;0.70;99.90;;;-1.16;100.00;101601.22;4994027;28;20042;-88
2023/03/03 06:34:40;;;;;;;40.97;15.27;;;0.70;99.90;;;-1.00;100.00;101615.28;4976878;28;20088;-88
2023/03/03 06:37:06;;;;;;;45.05;16.23;;;0.70;99.90;;;-0.82;100.00;101621.88;5009708;28;20474;-88
2023/03/03 06:39:32;;;;;;;41.70;15.38;;;0.80;99.90;;;-0.76;100.00;101620.56;4977492;28;20038;-89
2023/03/03 06:41:58;;;;;;;43.30;15.90;;;0.90;99.90;;;-0.78;100.00;101611.78;5008291;28;20092;-88
2023/03/03 06:44:24;;;;;;;45.03;15.60;;;0.90;99.90;;;-0.77;100.00;101610.81;5007346;28;20023;-87
2023/03/03 06:46:49;;;;;;;43.70;14.88;;;1.00;99.90;;;-0.80;100.00;101611.06;4971374;28;20398;-86
2023/03/03 06:49:15;;;;;;;43.65;15.52;;;1.00;99.90;;;-0.86;100.00;101604.34;4984097;28;20047;-85
2023/03/03 06:51:42;;;;;;;42.70;15.70;;;1.00;99.90;;;-0.77;100.00;101617.03;4991662;28;20485;-86
2023/03/03 06:54:23;;;;;;;42.33;15.17;;;1.00;99.90;;;-0.76;100.00;101613.38;4992088;28;20060;-83
2023/03/03 06:56:56;;;;;;;44.42;16.25;;;1.00;99.90;;;-0.88;100.00;101606.28;4987679;28;20501;-85
2023/03/03 06:59:22;;;;;;;43.45;15.35;;;1.00;99.90;;;-0.84;100.00;101623.00;4984115;28;20090;-85
2023/03/03 07:01:49;;;;;;;41.95;15.57;;;0.90;99.90;;;-0.97;100.00;101623.06;5006471;28;20177;-85
2023/03/03 07:04:33;;;;;;;45.83;15.00;;;0.90;99.90;;;-1.02;100.00;101621.59;4982346;28;20035;-84
2023/03/03 07:07:23;;;;;;;39.80;14.38;;;0.90;99.90;;;-1.03;100.00;101629.75;4995557;28;20050;-83
2023/03/03 07:09:53;;;;;;;40.03;13.02;;;0.80;99.90;;;-1.10;100.00;101624.00;4984460;28;20065;-83
2023/03/03 07:12:27;;;;;;;41.30;14.98;;;0.70;99.90;;;-1.12;100.00;101633.13;4975081;28;20088;-85
2023/03/03 07:15:22;;;;;;;38.22;13.43;;;0.70;99.90;;;-1.15;100.00;101623.50;4982831;28;20057;-85
2023/03/03 07:17:53;;;;;;;37.75;14.48;;;0.70;99.90;;;-1.02;100.00;101632.31;4978195;28;20035;-87
2023/03/03 07:20:34;;;;;;;34.88;13.55;;;0.80;99.90;;;-0.95;100.00;101638.03;4990952;28;20110;-85
2023/03/03 07:23:22;;;;;;;36.85;13.52;;;0.80;99.90;;;-0.94;100.00;101631.72;4974687;28;20089;-84
2023/03/03 07:25:48;;;;;;;42.33;15.35;;;0.90;99.90;;;-0.79;100.00;101642.25;4976180;28;20027;-86
2023/03/03 07:28:28;;;;;;;40.85;15.50;;;1.00;99.90;;;-0.71;100.00;101647.00;4971331;28;20371;-85
2023/03/03 07:30:56;;;;;;;36.78;14.80;;;1.10;99.90;;;-0.69;100.00;101647.75;4991686;28;20045;-84
2023/03/03 07:33:38;;;;;;;;;;;1.10;99.90;;;-0.78;100.00;101650.19;5000170;28;20457;-83
2023/03/03 07:36:32;;;;;;;38.35;13.85;;;1.10;99.90;;;-0.81;100.00;101636.16;4999507;28;20333;-83
2023/03/03 07:39:24;;;;;;;41.70;14.45;;;1.10;99.90;;;-0.69;100.00;101659.31;4979902;28;20031;-83
2023/03/03 07:41:50;;;;;;;40.67;14.55;;;1.10;99.90;;;-0.67;100.00;101645.81;4997181;28;20034;-82
2023/03/03 07:44:35;;;;;;;49.45;16.33;;;1.20;99.90;;;-0.65;100.00;101647.41;4990256;28;20041;-81
2023/03/03 07:47:28;;;;;;;36.15;14.60;;;1.20;99.90;;;-0.51;100.00;101654.38;4988027;28;20057;-83
2023/03/03 07:49:59;;;;;;;42.33;15.98;;;1.30;99.90;;;-0.66;100.00;101650.19;4984948;28;20065;-83
2023/03/03 07:52:40;;;;;;;43.85;16.70;;;1.30;99.90;;;-0.69;100.00;101667.34;4983018;28;20077;-83
2023/03/03 07:55:39;;;;;;;44.38;15.50;;;1.20;99.90;;;-0.54;100.00;101664.47;4988035;28;20484;-80
2023/03/03 07:58:11;;;;;;;46.90;17.52;;;1.30;99.90;;;-0.58;100.00;101666.53;4972628;28;20046;-80
2023/03/03 08:01:23;;;;;;;46.72;17.92;;;1.30;99.90;;;-0.64;100.00;101667.00;4984313;28;20543;-81
2023/03/03 08:03:50;;;;;;;50.25;18.65;;;1.20;99.90;;;-0.53;100.00;101664.38;4991374;28;20049;-79
2023/03/03 08:06:39;;;;;;;46.42;17.65;;;1.30;99.90;;;-0.57;100.00;101672.75;4975330;28;20058;-80
2023/03/03 08:09:10;;;;;;;48.13;18.10;;;1.30;99.90;;;-0.55;100.00;101670.81;4999328;28;20041;-80
2023/03/03 08:12:13;;;;;;;46.05;17.75;;;1.30;99.90;;;-0.44;100.00;101676.19;4989153;28;20427;-84
2023/03/03 08:14:38;;;;;;;52.45;18.88;;;1.40;99.90;;;-0.50;100.00;101665.94;4981422;28;20084;-84
2023/03/03 08:17:21;;;;;;;50.80;18.85;;;1.40;99.90;;;-0.58;100.00;101679.94;4987022;28;20042;-84
2023/03/03 08:19:49;;;;;;;47.65;18.15;;;1.30;99.90;;;-0.59;100.00;101675.53;4981872;28;20059;-84
2023/03/03 08:22:34;;;;;;;46.83;18.13;;;1.30;99.90;;;-0.45;100.00;101674.47;4997083;28;20042;-84
2023/03/03 08:25:00;;;;;;;39.13;15.52;;;1.40;99.90;;;-0.53;100.00;101685.81;4989706;28;20038;-83
2023/03/03 08:27:26;;;;;;;37.88;14.65;;;1.40;99.90;;;-0.48;100.00;101672.91;4985086;28;20466;-83
2023/03/03 08:29:51;;;;;;;33.33;13.25;;;1.40;99.90;;;-0.30;100.00;101685.84;4984973;28;20042;-83
2023/03/03 08:32:17;;;;;;;32.42;13.05;;;1.50;99.90;;;-0.23;100.00;101676.34;4991126;28;20026;-79
2023/03/03 08:34:43;;;;;;;33.30;13.00;;;1.60;99.90;;;-0.32;100.00;101682.41;4987325;28;20050;-78
2023/03/03 08:37:09;;;;;;;33.85;14.68;;;1.60;99.90;;;-0.22;100.00;101682.56;4985868;28;20038;-78
2023/03/03 08:39:35;;;;;;;34.70;15.55;;;1.70;99.90;;;-0.01;100.00;101690.72;4989751;28;20035;-79
2023/03/03 08:42:00;;;;;;;40.08;15.60;;;1.80;99.90;;;0.23;100.00;101695.13;4983955;28;20062;-81
2023/03/03 08:44:26;;;;;;;38.95;17.63;;;2.00;99.90;;;0.23;100.00;101695.13;4998068;28;20034;-81
2023/03/03 08:46:52;;;;;;;40.20;16.58;;;2.10;99.90;;;0.07;100.00;101672.22;4984222;28;20445;-79
2023/03/03 08:49:18;;;;;;;40.08;17.60;;;2.10;99.90;;;0.27;100.00;101700.13;4984519;28;20054;-80
2023/03/03 08:51:43;;;;;;;33.05;15.13;;;2.20;99.90;;;0.21;100.00;101689.88;4989976;28;20049;-82
2023/03/03 08:54:09;;;;;;;36.45;15.10;;;2.20;99.90;;;0.18;100.00;101689.28;4990472;28;20045;-81
2023/03/03 08:56:35;;;;;;;32.53;14.65;;;2.10;99.90;;;0.03;100.00;101672.56;4984649;28;20043;-82
2023/03/03 08:59:01;;;;;;;33.83;14.60;;;2.00;99.90;;;0.01;100.00;101688.81;4988112;28;20098;-81
2023/03/03 09:01:27;;;;;;;32.33;14.02;;;2.00;99.90;;;0.11;100.00;101692.44;4984801;28;20037;-81
2023/03/03 09:03:52;;;;;;;33.78;14.73;;;2.00;99.90;;;0.45;100.00;101690.69;4988754;28;20064;-81
2023/03/03 09:06:18;;;;;;;31.92;14.40;;;2.20;99.90;;;0.48;100.00;101693.13;4991065;28;20080;-82
2023/03/03 09:08:44;;;;;;;37.03;14.73;;;2.30;99.90;;;0.24;100.00;101688.78;4988720;28;20034;-80
2023/03/03 09:11:13;;;;;;;37.25;14.82;;;2.30;99.90;;;0.41;100.00;101699.00;4991212;28;20513;-81
2023/03/03 09:13:38;;;;;;;26.88;12.48;;;2.30;99.90;;;0.40;100.00;101699.16;5011432;28;20030;-80
2023/03/03 09:16:15;;;;;;;34.83;13.38;;;2.40;99.90;;;0.40;100.00;101693.78;4984593;28;20045;-82
2023/03/03 09:18:42;;;;;;;27.20;12.90;;;2.40;99.90;;;0.22;100.00;101680.00;4989493;28;20497;-81
2023/03/03 09:21:31;;;;;;;29.88;12.80;;;2.20;99.90;;;0.41;100.00;101684.75;4992480;28;20041;-81
2023/03/03 09:23:58;;;;;;;35.20;14.57;;;2.30;99.90;;;0.41;100.00;101688.28;4988212;28;20073;-81
2023/03/03 09:26:30;;;;;;;29.05;13.23;;;2.30;99.90;;;0.23;100.00;101684.38;4994595;28;20679;-81
2023/03/03 09:29:27;;;;;;;32.58;13.30;;;2.20;99.90;;;0.49;100.00;101684.97;4987158;28;20097;-85
2023/03/03 09:32:00;;;;;;;51.22;17.50;;;2.40;99.90;;;0.52;100.00;101686.53;4983589;28;20038;-82
2023/03/03 09:34:35;;;;;;;37.58;15.52;;;2.40;99.90;;;1.04;100.00;101685.88;4989882;28;20092;-84
2023/03/03 09:37:26;;;;;;;27.63;12.60;;;2.70;99.90;;;1.17;100.00;101673.13;4997853;28;20080;-83
2023/03/03 09:39:55;;;;;;;26.40;12.32;;;3.00;99.90;;;0.98;100.00;101677.38;5009721;28;20042;-81
2023/03/03 09:42:35;;;;;;;25.83;11.45;;;3.10;99.90;;;1.34;100.00;101682.47;5000212;28;20531;-81
2023/03/03 09:45:43;;;;;;;24.50;11.45;;;3.10;99.90;;;1.63;100.00;101672.88;4982624;28;20040;-82
2023/03/03 09:48:37;;;;;;;27.20;12.55;;;3.40;99.90;;;1.52;100.00;101688.09;4993551;28;20038;-81
2023/03/03 09:51:58;;;;;;;26.98;12.68;;;3.40;99.90;;;1.54;100.00;101688.81;4994194;28;20054;-81
2023/03/03 09:55:11;;;;;;;21.73;11.52;;;3.30;99.90;;;1.70;100.00;101692.88;5015984;28;20061;-80
2023/03/03 09:58:12;;;;;;;23.67;11.82;;;3.40;99.90;;;1.93;100.00;101695.41;5000620;28;20048;-80
2023/03/03 10:00:50;;;;;;;25.15;12.38;;;3.70;99.90;;;1.89;100.00;101697.50;4998652;28;20037;-83
2023/03/03 10:04:06;;;;;;;26.73;13.18;;;3.60;99.90;;;1.92;100.00;101697.25;4998270;28;20432;-81
2023/03/03 10:06:52;;;;;;;27.50;12.48;;;3.60;99.90;;;1.94;100.00;101699.81;5013109;28;20065;-81
2023/03/03 10:10:18;;;;;;;28.13;13.13;;;3.80;99.90;;;1.88;100.00;101698.50;4998960;28;20485;-84
2023/03/03 10:13:13;;;;;;;26.95;12.02;;;3.80;99.90;;;1.35;100.00;101696.78;4998361;28;20038;-82
2023/03/03 10:16:18;;;;;;;25.50;11.77;;;3.40;99.90;;;1.18;100.00;101690.97;5014124;28;20029;-82
2023/03/03 10:18:54;;;;;;;25.58;12.63;;;3.20;99.90;;;1.20;100.00;101697.06;4998535;28;20105;-81
2023/03/03 10:21:43;;;;;;;27.52;12.57;;;3.30;99.90;;;1.24;100.00;101701.19;4989007;28;20038;-81